Time;durP1;ratioP1;P1;durP2;ratioP2;P2;SDS_P1;SDS_P2;PMS_P1;PMS_P2;Temp;Humidity;BMP_temperature;BMP_pressure;BME280_temperature;BME280_humidity;BME280_pressure;Samples;Min_cycle;Max_cycle;Signal;HPM_P1;HPM_P2
2023/09/13 00:00:24;;;;;;;33.00;29.30;;;;;;;;;;10262557;28;20044;-67
2023/09/13 00:05:20;;;;;;;42.95;34.03;;;;;;;;;;10268766;28;20099;-67
2023/09/13 00:10:18;;;;;;;34.28;30.80;;;;;;;;;;10273367;28;20128;-67
2023/09/13 00:15:15;;;;;;;37.47;33.58;;;;;;;;;;10265016;28;20486;-67
2023/09/13 00:20:11;;;;;;;38.28;33.75;;;;;;;;;;10255771;28;20562;-67
2023/09/13 00:25:08;;;;;;;44.42;36.72;;;;;;;;;;10256261;28;20053;-67
2023/09/13 00:30:08;;;;;;;44.22;35.10;;;;;;;;;;10250778;28;20052;-67
2023/09/13 00:35:05;;;;;;;43.72;37.03;;;;;;;;;;10265840;28;20064;-69
2023/09/13 00:40:02;;;;;;;54.10;39.20;;;;;;;;;;10280115;28;20061;-68
2023/09/13 00:44:58;;;;;;;40.83;35.65;;;;;;;;;;10286976;28;20049;-66
2023/09/13 00:49:54;;;;;;;41.63;37.00;;;;;;;;;;10238739;28;20084;-67
2023/09/13 00:54:52;;;;;;;45.08;38.85;;;;;;;;;;10254606;28;20136;-67
2023/09/13 00:59:48;;;;;;;39.75;35.38;;;;;;;;;;10273455;28;20059;-68
2023/09/13 01:04:45;;;;;;;41.63;37.22;;;;;;;;;;10255142;28;20053;-68
2023/09/13 01:09:41;;;;;;;42.55;37.35;;;;;;;;;;10262443;28;20045;-67
2023/09/13 01:14:38;;;;;;;45.75;37.17;;;;;;;;;;10251442;28;20081;-68
2023/09/13 01:19:37;;;;;;;50.42;38.08;;;;;;;;;;10265120;28;20263;-68
2023/09/13 01:24:46;;;;;;;44.45;37.15;;;;;;;;;;10259696;28;20057;-67
2023/09/13 01:29:44;;;;;;;41.25;35.97;;;;;;;;;;10258459;28;20068;-68
2023/09/13 01:34:40;;;;;;;44.58;39.83;;;;;;;;;;10225741;28;20072;-67
2023/09/13 01:39:37;;;;;;;40.63;36.45;;;;;;;;;;10250271;28;20690;-68
2023/09/13 01:44:40;;;;;;;40.10;35.95;;;;;;;;;;10263054;28;20045;-68
2023/09/13 01:49:37;;;;;;;40.17;35.60;;;;;;;;;;10262431;28;20096;-68
2023/09/13 01:54:34;;;;;;;41.63;37.13;;;;;;;;;;10261006;28;20045;-67
2023/09/13 01:59:32;;;;;;;48.60;35.42;;;;;;;;;;10258516;28;20049;-67
2023/09/13 02:04:32;;;;;;;36.15;32.35;;;;;;;;;;10255263;28;20048;-67
2023/09/13 02:09:29;;;;;;;41.70;35.70;;;;;;;;;;10247559;28;20072;-67
2023/09/13 02:14:26;;;;;;;38.70;33.70;;;;;;;;;;10260156;28;20077;-67
2023/09/13 02:19:22;;;;;;;38.83;31.85;;;;;;;;;;10253670;28;20135;-67
2023/09/13 02:24:18;;;;;;;37.95;31.88;;;;;;;;;;10255155;28;20481;-68
2023/09/13 02:29:15;;;;;;;32.10;28.77;;;;;;;;;;10255938;28;20550;-67
2023/09/13 02:34:11;;;;;;;31.00;27.70;;;;;;;;;;10263703;28;20053;-67
2023/09/13 02:39:26;;;;;;;32.33;29.00;;;;;;;;;;10257971;28;20501;-66
2023/09/13 02:44:23;;;;;;;33.28;29.70;;;;;;;;;;10262491;28;20053;-67
2023/09/13 02:49:20;;;;;;;30.23;26.98;;;;;;;;;;10255975;28;20064;-67
2023/09/13 02:54:16;;;;;;;31.67;28.52;;;;;;;;;;10247716;28;20057;-66
2023/09/13 02:59:13;;;;;;;31.60;28.17;;;;;;;;;;10256200;28;20061;-67
2023/09/13 03:04:09;;;;;;;33.67;28.50;;;;;;;;;;10250329;28;20083;-66
2023/09/13 03:09:06;;;;;;;28.58;25.70;;;;;;;;;;10259235;28;20055;-66
2023/09/13 03:14:02;;;;;;;33.17;27.15;;;;;;;;;;10250707;28;20046;-66
2023/09/13 03:18:59;;;;;;;28.75;25.83;;;;;;;;;;10259728;28;20070;-66
2023/09/13 03:23:55;;;;;;;31.10;27.77;;;;;;;;;;10240522;28;20404;-65
2023/09/13 03:28:52;;;;;;;30.80;26.30;;;;;;;;;;10251658;28;20042;-66
2023/09/13 03:33:49;;;;;;;32.58;28.02;;;;;;;;;;10261784;28;20701;-68
2023/09/13 03:38:46;;;;;;;29.02;26.00;;;;;;;;;;10254566;28;20049;-68
2023/09/13 03:43:43;;;;;;;27.63;24.77;;;;;;;;;;10254613;28;20524;-68
2023/09/13 03:48:39;;;;;;;28.05;25.05;;;;;;;;;;10240301;28;20052;-69
2023/09/13 03:53:36;;;;;;;28.13;25.17;;;;;;;;;;10258275;28;20257;-67
2023/09/13 03:58:33;;;;;;;27.60;24.73;;;;;;;;;;10234262;28;20049;-68
2023/09/13 04:03:30;;;;;;;27.00;24.20;;;;;;;;;;10250090;28;20669;-69
2023/09/13 04:08:28;;;;;;;24.08;21.58;;;;;;;;;;10250732;28;20135;-69
2023/09/13 04:13:24;;;;;;;26.05;22.20;;;;;;;;;;10253372;28;20044;-69
2023/09/13 04:18:21;;;;;;;22.83;20.75;;;;;;;;;;10256045;28;20128;-69
2023/09/13 04:23:17;;;;;;;20.90;18.83;;;;;;;;;;10258426;28;20041;-69
2023/09/13 04:28:13;;;;;;;16.50;15.00;;;;;;;;;;10262605;28;20402;-69
2023/09/13 04:33:10;;;;;;;13.45;12.45;;;;;;;;;;10269943;28;20536;-69
2023/09/13 04:38:06;;;;;;;13.32;12.15;;;;;;;;;;10250260;28;20126;-69
2023/09/13 04:43:06;;;;;;;13.23;11.48;;;;;;;;;;10259341;28;20049;-69
2023/09/13 04:48:02;;;;;;;11.93;11.02;;;;;;;;;;10256945;28;20163;-69
2023/09/13 04:52:59;;;;;;;12.10;11.10;;;;;;;;;;10253817;28;20057;-69
2023/09/13 04:57:55;;;;;;;11.95;10.95;;;;;;;;;;10257451;28;20052;-69
2023/09/13 05:02:52;;;;;;;12.57;11.63;;;;;;;;;;10260929;28;20052;-69
2023/09/13 05:07:49;;;;;;;12.75;11.70;;;;;;;;;;10260567;28;20053;-69
2023/09/13 05:12:48;;;;;;;12.30;11.45;;;;;;;;;;10254542;28;20056;-69
2023/09/13 05:17:45;;;;;;;11.88;10.73;;;;;;;;;;10261712;28;20049;-69
2023/09/13 05:22:42;;;;;;;12.90;11.70;;;;;;;;;;10265721;28;20091;-69
2023/09/13 05:27:38;;;;;;;11.02;9.93;;;;;;;;;;10271061;28;20048;-70
2023/09/13 05:32:34;;;;;;;10.60;9.80;;;;;;;;;;10260979;28;20040;-69
2023/09/13 05:37:31;;;;;;;11.05;10.25;;;;;;;;;;10261090;28;20048;-68
2023/09/13 05:42:27;;;;;;;10.80;9.75;;;;;;;;;;10262138;28;20140;-68
2023/09/13 05:47:24;;;;;;;10.05;9.25;;;;;;;;;;10259665;28;20108;-69
2023/09/13 05:52:20;;;;;;;10.18;9.38;;;;;;;;;;10270755;28;20060;-69
2023/09/13 05:57:16;;;;;;;11.00;10.30;;;;;;;;;;10248628;28;20044;-69
2023/09/13 06:02:14;;;;;;;10.25;9.55;;;;;;;;;;10265104;28;20045;-69
2023/09/13 06:07:11;;;;;;;10.50;9.80;;;;;;;;;;10369994;23;20072;-69
2023/09/13 06:12:07;;;;;;;10.05;9.15;;;;;;;;;;10268236;28;20153;-69
2023/09/13 06:17:03;;;;;;;10.57;9.85;;;;;;;;;;10226803;28;20049;-69
2023/09/13 06:22:00;;;;;;;9.90;9.30;;;;;;;;;;10216573;28;20041;-70
2023/09/13 06:26:56;;;;;;;9.90;9.20;;;;;;;;;;10223587;28;20056;-69
2023/09/13 06:31:56;;;;;;;10.07;9.30;;;;;;;;;;10223483;28;20080;-70
2023/09/13 06:37:02;;;;;;;9.95;9.25;;;;;;;;;;10252219;28;20076;-70
2023/09/13 06:42:02;;;;;;;10.45;9.40;;;;;;;;;;10232203;28;20052;-70
2023/09/13 06:47:18;;;;;;;9.52;8.82;;;;;;;;;;10212604;28;20119;-70
2023/09/13 06:52:15;;;;;;;11.10;10.13;;;;;;;;;;10242150;28;20053;-70
2023/09/13 06:57:16;;;;;;;10.98;10.07;;;;;;;;;;10224219;28;20116;-70
2023/09/13 07:02:17;;;;;;;12.02;9.45;;;;;;;;;;10232431;28;20053;-70
2023/09/13 07:07:28;;;;;;;11.52;10.25;;;;;;;;;;10218164;28;20516;-69
2023/09/13 07:12:25;;;;;;;14.52;10.50;;;;;;;;;;10225389;28;20053;-69
2023/09/13 07:17:24;;;;;;;12.18;11.00;;;;;;;;;;10234295;28;20053;-69
2023/09/13 07:22:20;;;;;;;18.35;11.23;;;;;;;;;;10223461;28;20053;-69
2023/09/13 07:27:17;;;;;;;10.45;9.45;;;;;;;;;;10241968;28;21443;-69
2023/09/13 07:32:13;;;;;;;12.52;10.00;;;;;;;;;;10231421;28;20135;-69
2023/09/13 07:37:09;;;;;;;13.30;10.63;;;;;;;;;;10232050;28;20144;-69
2023/09/13 07:42:06;;;;;;;12.10;10.27;;;;;;;;;;10227762;28;20075;-70
2023/09/13 07:47:02;;;;;;;11.63;9.70;;;;;;;;;;10216406;28;20498;-69
2023/09/13 07:51:58;;;;;;;13.80;9.68;;;;;;;;;;10231056;28;20053;-72
2023/09/13 07:56:55;;;;;;;10.50;9.50;;;;;;;;;;10217406;28;20057;-69
2023/09/13 08:01:51;;;;;;;13.05;9.63;;;;;;;;;;10230365;28;20045;-69
2023/09/13 08:06:47;;;;;;;12.50;11.30;;;;;;;;;;10208260;28;20641;-69
2023/09/13 08:11:45;;;;;;;11.77;10.45;;;;;;;;;;10224925;28;20076;-70
2023/09/13 08:16:41;;;;;;;11.30;9.90;;;;;;;;;;10226492;28;20049;-70
2023/09/13 08:21:38;;;;;;;13.65;9.93;;;;;;;;;;10229896;28;20136;-69
2023/09/13 08:26:34;;;;;;;20.13;10.73;;;;;;;;;;10218248;28;20678;-68
2023/09/13 08:31:31;;;;;;;13.88;9.57;;;;;;;;;;10233278;28;20438;-69
2023/09/13 08:36:27;;;;;;;10.40;9.32;;;;;;;;;;10223696;28;20099;-68
2023/09/13 08:41:24;;;;;;;11.73;8.70;;;;;;;;;;10205715;28;20049;-69
2023/09/13 08:46:21;;;;;;;11.52;8.65;;;;;;;;;;10213694;28;20049;-69
2023/09/13 08:51:18;;;;;;;13.45;8.27;;;;;;;;;;10221012;28;20059;-69
2023/09/13 08:56:14;;;;;;;12.52;7.70;;;;;;;;;;10235820;28;20045;-69
2023/09/13 09:01:12;;;;;;;10.98;9.93;;;;;;;;;;10219327;28;20053;-69
2023/09/13 09:06:09;;;;;;;14.63;9.23;;;;;;;;;;10226719;28;20053;-69
2023/09/13 09:11:06;;;;;;;15.98;8.15;;;;;;;;;;10234399;28;20123;-69
2023/09/13 09:16:03;;;;;;;13.70;8.25;;;;;;;;;;10216122;28;20497;-69
2023/09/13 09:21:00;;;;;;;14.40;8.85;;;;;;;;;;10230525;28;20154;-69
2023/09/13 09:25:57;;;;;;;8.68;7.78;;;;;;;;;;10273400;22;20045;-69
2023/09/13 09:30:53;;;;;;;14.43;7.82;;;;;;;;;;10272098;28;20057;-69
2023/09/13 09:35:54;;;;;;;11.73;8.02;;;;;;;;;;10273620;28;20223;-69
2023/09/13 09:40:50;;;;;;;11.30;8.25;;;;;;;;;;10271712;28;20045;-69
2023/09/13 09:45:47;;;;;;;16.63;8.32;;;;;;;;;;10266756;28;20056;-69
2023/09/13 09:50:47;;;;;;;10.02;8.45;;;;;;;;;;10255133;28;20049;-69
2023/09/13 09:55:44;;;;;;;12.27;7.82;;;;;;;;;;10263637;28;20052;-69
2023/09/13 10:00:47;;;;;;;12.38;8.82;;;;;;;;;;10262772;28;20135;-69
2023/09/13 10:05:54;;;;;;;12.98;8.70;;;;;;;;;;10270631;28;20053;-69
2023/09/13 10:10:51;;;;;;;17.33;9.57;;;;;;;;;;10265715;28;20072;-69
2023/09/13 10:15:48;;;;;;;13.52;7.63;;;;;;;;;;10275087;28;20517;-69
2023/09/13 10:20:44;;;;;;;9.90;8.38;;;;;;;;;;10272832;28;20059;-69
2023/09/13 10:25:41;;;;;;;9.13;7.63;;;;;;;;;;10302096;22;20056;-69
2023/09/13 10:30:39;;;;;;;10.45;8.63;;;;;;;;;;10307757;28;20048;-69
2023/09/13 10:35:39;;;;;;;15.80;8.88;;;;;;;;;;10308255;28;20057;-70
2023/09/13 10:40:44;;;;;;;11.80;8.40;;;;;;;;;;10307290;28;20052;-69
2023/09/13 10:45:41;;;;;;;8.63;7.72;;;;;;;;;;10288386;28;20144;-69
2023/09/13 10:50:38;;;;;;;11.48;8.70;;;;;;;;;;10299236;28;20466;-69
2023/09/13 10:55:34;;;;;;;12.93;8.13;;;;;;;;;;10286592;22;20061;-69
2023/09/13 11:00:32;;;;;;;11.30;7.90;;;;;;;;;;10265616;28;20053;-69
2023/09/13 11:05:29;;;;;;;12.15;8.43;;;;;;;;;;10253332;28;20045;-69
2023/09/13 11:10:29;;;;;;;16.08;8.15;;;;;;;;;;10248380;28;20520;-69
2023/09/13 11:15:26;;;;;;;13.63;7.50;;;;;;;;;;10260113;28;20064;-69
2023/09/13 11:20:22;;;;;;;14.50;9.85;;;;;;;;;;10261695;28;20049;-69
2023/09/13 11:25:22;;;;;;;14.73;8.43;;;;;;;;;;10272495;28;20064;-69
2023/09/13 11:30:45;;;;;;;11.00;7.68;;;;;;;;;;10270026;28;20425;-69
2023/09/13 11:35:44;;;;;;;11.95;7.75;;;;;;;;;;10271464;28;20079;-69
2023/09/13 11:40:46;;;;;;;10.23;8.02;;;;;;;;;;10268869;28;20065;-69
2023/09/13 11:45:45;;;;;;;9.47;8.23;;;;;;;;;;10253376;28;20140;-69
2023/09/13 11:50:43;;;;;;;9.52;8.25;;;;;;;;;;10263529;28;20152;-70
2023/09/13 11:55:49;;;;;;;13.13;8.32;;;;;;;;;;10262587;28;20061;-69
2023/09/13 12:01:04;;;;;;;10.25;7.30;;;;;;;;;;10255341;28;20269;-69
2023/09/13 12:06:03;;;;;;;8.82;7.65;;;;;;;;;;10255568;28;20045;-69
2023/09/13 12:11:20;;;;;;;8.45;7.65;;;;;;;;;;10245731;28;20080;-69
2023/09/13 12:16:19;;;;;;;8.73;7.00;;;;;;;;;;10255791;28;20057;-69
2023/09/13 12:21:16;;;;;;;10.38;7.63;;;;;;;;;;10268247;28;20524;-69
2023/09/13 12:26:14;;;;;;;12.75;7.13;;;;;;;;;;10271314;28;20531;-69
2023/09/13 12:31:12;;;;;;;10.02;7.55;;;;;;;;;;10266160;28;20559;-69
2023/09/13 12:36:09;;;;;;;10.65;7.43;;;;;;;;;;10269534;28;20068;-69
2023/09/13 12:41:05;;;;;;;12.13;6.75;;;;;;;;;;10260125;28;20103;-69
2023/09/13 12:46:02;;;;;;;9.27;7.03;;;;;;;;;;10316003;22;20582;-69
2023/09/13 12:50:59;;;;;;;13.40;7.95;;;;;;;;;;10306460;28;20052;-69
2023/09/13 12:55:56;;;;;;;10.77;7.97;;;;;;;;;;10305344;28;20057;-69
2023/09/13 13:00:52;;;;;;;11.70;7.13;;;;;;;;;;10304394;28;20049;-69
2023/09/13 13:05:49;;;;;;;7.47;6.38;;;;;;;;;;10314136;28;20049;-69
2023/09/13 13:10:55;;;;;;;12.57;5.45;;;;;;;;;;10308615;28;20044;-69
2023/09/13 13:15:51;;;;;;;8.50;5.93;;;;;;;;;;10328872;22;20404;-69
2023/09/13 13:20:48;;;;;;;6.95;6.13;;;;;;;;;;10235415;28;20137;-69
2023/09/13 13:26:04;;;;;;;6.30;5.45;;;;;;;;;;10207439;28;20132;-69
2023/09/13 13:31:00;;;;;;;6.88;5.88;;;;;;;;;;10199295;28;20080;-70
2023/09/13 13:35:57;;;;;;;7.95;5.88;;;;;;;;;;10203974;28;20141;-69
2023/09/13 13:41:07;;;;;;;12.98;5.53;;;;;;;;;;10199321;28;20424;-68
2023/09/13 13:46:04;;;;;;;9.65;5.65;;;;;;;;;;10215850;28;20049;-68
2023/09/13 13:51:04;;;;;;;6.97;5.63;;;;;;;;;;10214069;28;20050;-69
2023/09/13 13:56:02;;;;;;;7.55;5.72;;;;;;;;;;10254614;22;20056;-71
2023/09/13 14:00:59;;;;;;;9.43;6.35;;;;;;;;;;10272104;28;20175;-70
2023/09/13 14:05:55;;;;;;;7.97;4.60;;;;;;;;;;10276151;28;20501;-70
2023/09/13 14:10:54;;;;;;;9.48;5.20;;;;;;;;;;10269328;28;20044;-70
2023/09/13 14:15:51;;;;;;;6.70;4.95;;;;;;;;;;10265668;28;20084;-71
2023/09/13 14:20:47;;;;;;;8.43;5.78;;;;;;;;;;10265122;28;20103;-70
2023/09/13 14:25:44;;;;;;;9.20;5.10;;;;;;;;;;10261247;28;20095;-70
2023/09/13 14:30:40;;;;;;;9.80;5.53;;;;;;;;;;10261536;28;20045;-70
2023/09/13 14:35:37;;;;;;;10.45;4.88;;;;;;;;;;10252447;28;20112;-71
2023/09/13 14:40:33;;;;;;;6.88;5.07;;;;;;;;;;10263057;28;20057;-70
2023/09/13 14:45:29;;;;;;;7.70;5.30;;;;;;;;;;10266234;28;20412;-70
2023/09/13 14:50:26;;;;;;;6.75;5.78;;;;;;;;;;10247522;28;20505;-70
2023/09/13 14:55:22;;;;;;;7.63;5.30;;;;;;;;;;10250354;28;20044;-70
2023/09/13 15:00:19;;;;;;;9.30;5.10;;;;;;;;;;10246391;28;20547;-70
2023/09/13 15:05:16;;;;;;;7.75;6.50;;;;;;;;;;10246720;28;20053;-69
2023/09/13 15:10:12;;;;;;;7.85;5.53;;;;;;;;;;10269080;28;20499;-70
2023/09/13 15:15:09;;;;;;;8.90;5.95;;;;;;;;;;10258425;28;20088;-70
2023/09/13 15:20:06;;;;;;;7.20;6.13;;;;;;;;;;10259898;28;20048;-69
2023/09/13 15:25:03;;;;;;;8.05;6.20;;;;;;;;;;10261677;28;20105;-69
2023/09/13 15:30:03;;;;;;;10.82;6.40;;;;;;;;;;10251650;28;20045;-70
2023/09/13 15:35:01;;;;;;;8.70;6.80;;;;;;;;;;10260273;28;20057;-70
2023/09/13 15:39:58;;;;;;;7.35;6.53;;;;;;;;;;10262117;28;20064;-70
2023/09/13 15:44:54;;;;;;;6.53;6.03;;;;;;;;;;10268819;28;20051;-70
2023/09/13 15:49:51;;;;;;;7.03;6.22;;;;;;;;;;10267563;28;20789;-71
2023/09/13 15:54:47;;;;;;;7.60;6.30;;;;;;;;;;10254620;28;20069;-71
2023/09/13 15:59:43;;;;;;;7.90;7.05;;;;;;;;;;10255153;28;20405;-72
2023/09/13 16:04:40;;;;;;;6.78;6.13;;;;;;;;;;10250494;28;20049;-72
2023/09/13 16:09:36;;;;;;;7.82;6.50;;;;;;;;;;10258309;28;20458;-71
2023/09/13 16:14:34;;;;;;;6.85;5.80;;;;;;;;;;10260914;28;20144;-72
2023/09/13 16:19:30;;;;;;;6.88;5.60;;;;;;;;;;10257257;28;20138;-72
2023/09/13 16:24:27;;;;;;;6.57;5.47;;;;;;;;;;10260096;28;20048;-72
2023/09/13 16:29:24;;;;;;;5.82;5.22;;;;;;;;;;10257568;28;20057;-71
2023/09/13 16:34:21;;;;;;;6.20;5.60;;;;;;;;;;10260026;28;20057;-71
2023/09/13 16:39:19;;;;;;;6.78;5.43;;;;;;;;;;10258460;28;20068;-70
2023/09/13 16:44:16;;;;;;;6.63;5.50;;;;;;;;;;10254069;28;20140;-70
2023/09/13 16:49:13;;;;;;;9.25;6.65;;;;;;;;;;10252575;28;20080;-71
2023/09/13 16:54:09;;;;;;;7.13;5.80;;;;;;;;;;10247144;28;20053;-71
2023/09/13 16:59:06;;;;;;;6.18;5.30;;;;;;;;;;10239306;28;20057;-71
2023/09/13 17:04:02;;;;;;;6.13;5.50;;;;;;;;;;10241547;28;20524;-71
2023/09/13 17:08:59;;;;;;;6.57;5.85;;;;;;;;;;10252472;28;20055;-71
2023/09/13 17:13:57;;;;;;;7.15;6.10;;;;;;;;;;10256751;28;20049;-70
2023/09/13 17:18:54;;;;;;;6.32;5.72;;;;;;;;;;10240984;28;20076;-71
2023/09/13 17:23:50;;;;;;;8.27;6.70;;;;;;;;;;10259550;28;20417;-71
2023/09/13 17:28:48;;;;;;;7.47;6.78;;;;;;;;;;10267107;28;20582;-71
2023/09/13 17:33:44;;;;;;;7.82;6.35;;;;;;;;;;10262710;28;20503;-71
2023/09/13 17:38:41;;;;;;;7.28;5.78;;;;;;;;;;10252541;28;20049;-71
2023/09/13 17:43:37;;;;;;;6.70;6.05;;;;;;;;;;10251822;28;20048;-71
2023/09/13 17:48:33;;;;;;;10.45;6.97;;;;;;;;;;10260927;28;20085;-71
2023/09/13 17:53:29;;;;;;;7.88;6.70;;;;;;;;;;10264615;28;20071;-71
2023/09/13 17:58:26;;;;;;;7.75;6.93;;;;;;;;;;10247034;28;20135;-71
2023/09/13 18:03:22;;;;;;;7.70;7.00;;;;;;;;;;10252197;28;20057;-71
2023/09/13 18:08:19;;;;;;;9.18;7.95;;;;;;;;;;10265922;28;20401;-72
2023/09/13 18:13:15;;;;;;;9.07;8.00;;;;;;;;;;10261955;28;20059;-71
2023/09/13 18:18:12;;;;;;;8.30;7.50;;;;;;;;;;10253939;28;20450;-71
2023/09/13 18:23:08;;;;;;;8.57;7.70;;;;;;;;;;10268371;28;20054;-72
2023/09/13 18:28:05;;;;;;;11.38;8.90;;;;;;;;;;10261511;28;20567;-72
2023/09/13 18:33:02;;;;;;;11.63;7.88;;;;;;;;;;10263161;28;20045;-72
2023/09/13 18:37:59;;;;;;;10.20;8.52;;;;;;;;;;10267974;28;20072;-71
2023/09/13 18:42:57;;;;;;;8.93;7.95;;;;;;;;;;10259659;28;20044;-71
2023/09/13 18:47:53;;;;;;;11.80;8.70;;;;;;;;;;10264373;28;20072;-71
2023/09/13 18:52:50;;;;;;;13.20;9.40;;;;;;;;;;10261826;28;20099;-71
2023/09/13 18:57:46;;;;;;;12.23;9.10;;;;;;;;;;10271045;28;20045;-71
2023/09/13 19:02:42;;;;;;;11.38;8.38;;;;;;;;;;10264225;28;20581;-71
2023/09/13 19:07:39;;;;;;;9.30;7.72;;;;;;;;;;10266094;28;20095;-71
2023/09/13 19:12:35;;;;;;;10.32;7.43;;;;;;;;;;10260956;28;20143;-72
2023/09/13 19:17:31;;;;;;;9.77;6.35;;;;;;;;;;10257069;28;20107;-71
2023/09/13 19:22:28;;;;;;;8.27;6.18;;;;;;;;;;10254557;28;20172;-71
2023/09/13 19:27:24;;;;;;;7.70;6.10;;;;;;;;;;10259927;28;20077;-71
2023/09/13 19:32:21;;;;;;;7.38;5.85;;;;;;;;;;10235327;28;20056;-72
2023/09/13 19:37:17;;;;;;;11.85;5.72;;;;;;;;;;10266563;28;20049;-71
2023/09/13 19:42:13;;;;;;;7.63;6.00;;;;;;;;;;10256943;28;20040;-71
2023/09/13 19:47:10;;;;;;;6.75;5.85;;;;;;;;;;10260529;28;20088;-71
2023/09/13 19:52:06;;;;;;;10.38;6.95;;;;;;;;;;10262735;28;20103;-71
2023/09/13 19:57:03;;;;;;;8.45;7.00;;;;;;;;;;10252556;28;20045;-71
2023/09/13 20:01:59;;;;;;;8.68;5.68;;;;;;;;;;10238299;28;20757;-71
2023/09/13 20:06:56;;;;;;;8.25;5.53;;;;;;;;;;10262058;28;20045;-71
2023/09/13 20:12:00;;;;;;;10.93;6.38;;;;;;;;;;10258187;28;20045;-71
2023/09/13 20:16:57;;;;;;;6.63;5.25;;;;;;;;;;10252114;28;20049;-71
2023/09/13 20:21:53;;;;;;;8.05;6.15;;;;;;;;;;10261216;28;20076;-71
2023/09/13 20:26:50;;;;;;;9.32;5.90;;;;;;;;;;10259949;28;20076;-72
2023/09/13 20:31:46;;;;;;;10.00;6.15;;;;;;;;;;10247345;28;20048;-72
2023/09/13 20:36:43;;;;;;;10.55;6.00;;;;;;;;;;10251110;28;20437;-68
2023/09/13 20:41:39;;;;;;;9.82;5.55;;;;;;;;;;10258653;28;20087;-68
2023/09/13 20:46:35;;;;;;;12.70;5.95;;;;;;;;;;10250004;28;20049;-68
2023/09/13 20:51:33;;;;;;;6.50;5.85;;;;;;;;;;10243508;28;20107;-68
2023/09/13 20:56:29;;;;;;;8.25;6.53;;;;;;;;;;10265877;28;20508;-68
2023/09/13 21:01:26;;;;;;;8.00;6.15;;;;;;;;;;10249983;28;20460;-68
2023/09/13 21:06:23;;;;;;;9.80;5.82;;;;;;;;;;10255925;28;20604;-68
2023/09/13 21:11:19;;;;;;;13.50;6.20;;;;;;;;;;10263969;28;20096;-68
2023/09/13 21:16:15;;;;;;;9.63;6.93;;;;;;;;;;10267196;28;20468;-69
2023/09/13 21:21:12;;;;;;;12.95;6.38;;;;;;;;;;10267135;28;20049;-68
2023/09/13 21:26:08;;;;;;;9.02;5.43;;;;;;;;;;10267374;28;20064;-68
2023/09/13 21:31:04;;;;;;;8.15;5.13;;;;;;;;;;10269160;28;21067;-68
2023/09/13 21:36:01;;;;;;;9.93;5.43;;;;;;;;;;10265660;28;20057;-68
2023/09/13 21:40:57;;;;;;;10.45;5.53;;;;;;;;;;10266733;28;20053;-68
2023/09/13 21:46:00;;;;;;;9.52;5.18;;;;;;;;;;10260842;28;20056;-67
2023/09/13 21:51:03;;;;;;;7.40;4.82;;;;;;;;;;10265824;28;20049;-67
2023/09/13 21:55:59;;;;;;;;;;;;;;;;;;10259449;28;20053;-67
2023/09/13 22:00:56;;;;;;;5.45;4.82;;;;;;;;;;10252106;28;20344;-67
2023/09/13 22:05:54;;;;;;;7.65;5.18;;;;;;;;;;10266146;28;20488;-67
2023/09/13 22:11:04;;;;;;;8.30;5.85;;;;;;;;;;10262315;28;20107;-67
2023/09/13 22:16:01;;;;;;;10.48;5.07;;;;;;;;;;10247536;28;20413;-69
2023/09/13 22:20:57;;;;;;;7.93;5.00;;;;;;;;;;10257436;28;20045;-67
2023/09/13 22:25:57;;;;;;;8.00;4.85;;;;;;;;;;10253138;28;20053;-68
2023/09/13 22:30:59;;;;;;;8.15;4.55;;;;;;;;;;10255765;28;20056;-67
2023/09/13 22:36:01;;;;;;;11.65;5.53;;;;;;;;;;10257854;28;20145;-67
2023/09/13 22:40:59;;;;;;;12.52;5.20;;;;;;;;;;10253257;28;20425;-67
2023/09/13 22:45:55;;;;;;;5.57;4.20;;;;;;;;;;10255594;28;20076;-69
2023/09/13 22:50:52;;;;;;;9.05;4.90;;;;;;;;;;10234714;28;20052;-69
2023/09/13 22:55:50;;;;;;;8.10;5.00;;;;;;;;;;10252763;28;20052;-69
2023/09/13 23:00:46;;;;;;;12.20;5.22;;;;;;;;;;10254046;28;20516;-68
2023/09/13 23:05:45;;;;;;;14.07;5.35;;;;;;;;;;10253937;28;20056;-68
2023/09/13 23:10:41;;;;;;;7.35;4.70;;;;;;;;;;10256919;28;20136;-68
2023/09/13 23:15:37;;;;;;;7.10;4.78;;;;;;;;;;10258493;28;20104;-68
2023/09/13 23:20:35;;;;;;;7.80;5.22;;;;;;;;;;10252008;28;20060;-67
2023/09/13 23:25:32;;;;;;;7.30;4.82;;;;;;;;;;10255183;28;20042;-67
2023/09/13 23:30:30;;;;;;;9.43;5.18;;;;;;;;;;10259050;28;20048;-68
2023/09/13 23:35:28;;;;;;;9.50;4.35;;;;;;;;;;10254950;28;20128;-68
2023/09/13 23:40:24;;;;;;;7.82;5.07;;;;;;;;;;10265427;28;20044;-67
2023/09/13 23:45:20;;;;;;;12.45;5.45;;;;;;;;;;10257973;28;20056;-68
2023/09/13 23:50:18;;;;;;;6.78;4.45;;;;;;;;;;10251545;28;20057;-67
2023/09/13 23:55:14;;;;;;;9.85;4.63;;;;;;;;;;10240695;28;20440;-67
